Time;durP1;ratioP1;P1;durP2;ratioP2;P2;SDS_P1;SDS_P2;PMS_P1;PMS_P2;Temp;Humidity;BMP_temperature;BMP_pressure;BME280_temperature;BME280_humidity;BME280_pressure;Samples;Min_cycle;Max_cycle;Signal;HPM_P1;HPM_P2
2021/07/02 00:01:48;;;;;;;11.52;7.78;;;15.40;99.90;;;;;;5037374;28;20017;-71
2021/07/02 00:04:13;;;;;;;14.20;8.02;;;15.40;99.90;;;;;;5035030;28;20396;-71
2021/07/02 00:06:39;;;;;;;12.35;8.32;;;15.30;99.90;;;;;;5034814;28;20025;-71
2021/07/02 00:09:04;;;;;;;14.90;9.25;;;15.40;99.90;;;;;;5034033;28;20504;-71
2021/07/02 00:11:30;;;;;;;12.52;8.68;;;15.40;99.90;;;;;;5039575;28;20018;-71
2021/07/02 00:13:55;;;;;;;12.88;8.60;;;15.30;99.90;;;;;;5033677;28;20025;-71
2021/07/02 00:16:21;;;;;;;10.95;7.65;;;15.30;99.90;;;;;;5040031;28;20021;-71
2021/07/02 00:18:46;;;;;;;13.88;8.43;;;15.30;99.90;;;;;;5035384;28;20017;-71
2021/07/02 00:21:12;;;;;;;13.52;8.73;;;15.30;99.90;;;;;;5036541;28;20044;-70
2021/07/02 00:23:37;;;;;;;11.10;7.72;;;15.30;99.90;;;;;;5034538;28;20498;-71
2021/07/02 00:26:03;;;;;;;17.08;8.35;;;15.30;99.90;;;;;;5035123;28;20017;-71
2021/07/02 00:28:28;;;;;;;12.23;7.90;;;15.20;99.90;;;;;;5033787;28;20037;-70
2021/07/02 00:30:54;;;;;;;10.27;7.47;;;15.20;99.90;;;;;;5033387;28;20029;-71
2021/07/02 00:33:20;;;;;;;13.75;9.05;;;15.20;99.90;;;;;;5038033;28;20025;-70
2021/07/02 00:35:45;;;;;;;11.60;8.50;;;15.20;99.90;;;;;;5034939;28;20022;-70
2021/07/02 00:38:11;;;;;;;12.38;8.80;;;15.10;99.90;;;;;;5036398;28;20013;-70
2021/07/02 00:40:36;;;;;;;10.55;7.03;;;15.10;99.90;;;;;;5034293;28;20028;-70
2021/07/02 00:43:03;;;;;;;13.00;8.82;;;15.10;99.90;;;;;;5034451;28;20535;-71
2021/07/02 00:45:28;;;;;;;12.45;7.78;;;15.10;99.90;;;;;;5033271;28;20112;-70
2021/07/02 00:47:54;;;;;;;11.40;8.65;;;15.00;99.90;;;;;;5031759;28;20100;-71
2021/07/02 00:50:19;;;;;;;11.57;8.32;;;15.00;99.90;;;;;;5037598;28;20022;-70
2021/07/02 00:52:45;;;;;;;12.13;8.48;;;15.00;99.90;;;;;;5034891;28;20560;-70
2021/07/02 00:55:12;;;;;;;12.75;8.50;;;14.90;99.90;;;;;;5035944;28;20372;-71
2021/07/02 00:57:38;;;;;;;12.07;7.70;;;14.90;99.90;;;;;;5034297;28;20017;-71
2021/07/02 01:00:08;;;;;;;11.35;7.38;;;14.90;99.90;;;;;;5034273;28;20481;-70
2021/07/02 01:02:35;;;;;;;10.70;7.97;;;14.90;99.90;;;;;;5033133;28;20068;-71
2021/07/02 01:05:00;;;;;;;15.43;9.80;;;14.80;99.90;;;;;;5033700;28;20026;-70
2021/07/02 01:07:26;;;;;;;15.05;10.43;;;14.80;99.90;;;;;;5033746;28;20025;-70
2021/07/02 01:09:52;;;;;;;14.13;8.80;;;14.70;99.90;;;;;;5032310;28;20041;-70
2021/07/02 01:12:17;;;;;;;15.10;8.52;;;14.60;99.90;;;;;;5031753;28;20061;-71
2021/07/02 01:14:43;;;;;;;12.82;9.23;;;14.60;99.90;;;;;;5034007;28;20477;-70
2021/07/02 01:17:09;;;;;;;16.42;10.77;;;14.60;99.90;;;;;;5036797;28;20072;-71
2021/07/02 01:19:34;;;;;;;14.05;9.38;;;14.50;99.90;;;;;;5036572;28;20039;-71
2021/07/02 01:22:00;;;;;;;14.90;10.70;;;14.50;99.90;;;;;;5033645;28;20524;-70
2021/07/02 01:24:26;;;;;;;13.38;9.55;;;14.40;99.90;;;;;;5034509;28;20095;-70
2021/07/02 01:26:52;;;;;;;16.10;10.00;;;14.40;99.90;;;;;;5033144;28;20068;-72
2021/07/02 01:29:19;;;;;;;15.02;10.48;;;14.40;99.90;;;;;;5032965;28;20413;-70
2021/07/02 01:31:45;;;;;;;16.63;9.38;;;14.40;99.90;;;;;;5033816;28;20021;-70
2021/07/02 01:34:10;;;;;;;13.40;9.02;;;14.40;99.90;;;;;;5034561;28;20495;-70
2021/07/02 01:36:36;;;;;;;17.98;9.40;;;14.40;99.90;;;;;;5036009;28;20074;-70
2021/07/02 01:39:03;;;;;;;13.95;9.05;;;14.40;99.90;;;;;;5033618;28;20026;-71
2021/07/02 01:41:29;;;;;;;15.75;8.73;;;14.40;99.90;;;;;;5034524;28;20049;-70
2021/07/02 01:43:54;;;;;;;14.25;9.82;;;14.40;99.90;;;;;;5037252;28;20107;-70
2021/07/02 01:46:20;;;;;;;12.32;8.95;;;14.40;99.90;;;;;;5032717;28;20033;-70
2021/07/02 01:48:45;;;;;;;13.27;8.80;;;14.50;99.90;;;;;;5033581;28;20080;-71
2021/07/02 01:51:11;;;;;;;11.23;8.38;;;14.50;99.90;;;;;;5033235;28;20021;-70
2021/07/02 01:53:37;;;;;;;15.20;8.95;;;14.50;99.90;;;;;;5035861;28;20499;-70
2021/07/02 01:56:03;;;;;;;13.02;8.65;;;14.50;99.90;;;;;;5032212;28;20026;-71
2021/07/02 01:58:28;;;;;;;15.20;7.97;;;14.50;99.90;;;;;;5037595;28;20060;-70
2021/07/02 02:00:54;;;;;;;14.32;8.32;;;14.50;99.90;;;;;;5035655;28;20376;-71
2021/07/02 02:03:19;;;;;;;9.85;7.20;;;14.50;99.90;;;;;;5036395;28;20026;-70
2021/07/02 02:05:45;;;;;;;13.82;8.73;;;14.50;99.90;;;;;;5038991;28;20501;-70
2021/07/02 02:08:10;;;;;;;14.57;9.00;;;14.50;99.90;;;;;;5036906;28;20496;-70
2021/07/02 02:10:36;;;;;;;16.17;9.18;;;14.50;99.90;;;;;;5037114;28;20025;-71
2021/07/02 02:13:02;;;;;;;15.18;9.50;;;14.40;99.90;;;;;;5036520;28;20045;-70
2021/07/02 02:15:27;;;;;;;14.02;9.82;;;14.40;99.90;;;;;;5035757;28;20385;-72
2021/07/02 02:17:53;;;;;;;16.38;11.50;;;14.40;99.90;;;;;;5042442;28;20028;-71
2021/07/02 02:20:19;;;;;;;19.40;11.45;;;14.30;99.90;;;;;;5037778;28;20024;-70
2021/07/02 02:22:44;;;;;;;15.35;10.38;;;14.30;99.90;;;;;;5038326;28;20044;-70
2021/07/02 02:25:10;;;;;;;14.18;10.70;;;14.30;99.90;;;;;;5037016;28;20025;-71
2021/07/02 02:27:37;;;;;;;15.77;10.02;;;14.20;99.90;;;;;;5036779;28;20392;-70
2021/07/02 02:30:05;;;;;;;15.85;9.63;;;14.20;99.90;;;;;;5036227;28;20079;-70
2021/07/02 02:32:30;;;;;;;12.80;9.57;;;14.20;99.90;;;;;;5035582;28;20531;-70
2021/07/02 02:34:56;;;;;;;13.82;9.63;;;14.20;99.90;;;;;;5040009;28;20029;-70
2021/07/02 02:37:22;;;;;;;11.00;8.68;;;14.20;99.90;;;;;;5037041;28;20033;-71
2021/07/02 02:39:47;;;;;;;13.23;8.25;;;14.20;99.90;;;;;;5038753;28;20059;-71
2021/07/02 02:42:13;;;;;;;12.40;8.00;;;14.20;99.90;;;;;;5035284;28;20433;-70
2021/07/02 02:44:38;;;;;;;11.60;7.57;;;14.30;99.90;;;;;;5035163;28;20087;-71
2021/07/02 02:47:04;;;;;;;10.98;7.40;;;14.20;99.90;;;;;;5035577;28;20416;-71
2021/07/02 02:49:29;;;;;;;10.07;7.50;;;14.20;99.90;;;;;;5035413;28;20021;-71
2021/07/02 02:51:55;;;;;;;11.90;9.05;;;14.20;99.90;;;;;;5040113;28;20535;-71
2021/07/02 02:54:20;;;;;;;14.45;10.20;;;14.20;99.90;;;;;;5035484;28;20517;-70
2021/07/02 02:57:04;;;;;;;14.57;10.13;;;14.20;99.90;;;;;;5038101;28;20022;-70
2021/07/02 02:59:34;;;;;;;18.15;11.02;;;14.20;99.90;;;;;;5036249;28;20017;-71
2021/07/02 03:02:00;;;;;;;14.73;10.20;;;14.10;99.90;;;;;;5036522;28;22031;-70
2021/07/02 03:04:26;;;;;;;15.23;9.98;;;14.00;99.90;;;;;;5036364;28;20033;-70
2021/07/02 03:06:52;;;;;;;15.77;10.00;;;14.00;99.90;;;;;;5036474;28;20120;-71
2021/07/02 03:09:17;;;;;;;15.77;9.38;;;14.10;99.90;;;;;;5035520;28;20036;-70
2021/07/02 03:11:46;;;;;;;15.52;10.80;;;14.00;99.90;;;;;;5035346;28;20017;-70
2021/07/02 03:14:12;;;;;;;15.40;10.75;;;14.00;99.90;;;;;;5035095;28;20527;-70
2021/07/02 03:16:37;;;;;;;16.25;10.02;;;14.00;99.90;;;;;;5039392;28;20029;-70
2021/07/02 03:19:03;;;;;;;15.77;11.57;;;13.90;99.90;;;;;;5035565;28;20103;-71
2021/07/02 03:21:29;;;;;;;17.23;11.07;;;13.90;99.90;;;;;;5038218;28;20041;-70
2021/07/02 03:23:54;;;;;;;18.08;11.40;;;13.90;99.90;;;;;;5035901;28;20030;-71
2021/07/02 03:26:20;;;;;;;17.70;11.75;;;13.80;99.90;;;;;;5036480;28;20054;-70
2021/07/02 03:28:45;;;;;;;12.70;9.73;;;13.80;99.90;;;;;;5033939;28;20032;-70
2021/07/02 03:31:11;;;;;;;17.80;11.63;;;13.80;99.90;;;;;;5033690;28;20440;-70
2021/07/02 03:33:37;;;;;;;22.58;14.27;;;13.80;99.90;;;;;;5035709;28;20052;-70
2021/07/02 03:36:03;;;;;;;20.10;13.82;;;13.80;99.90;;;;;;5042291;28;20028;-70
2021/07/02 03:38:28;;;;;;;21.55;16.05;;;13.70;99.90;;;;;;5036697;28;20029;-70
2021/07/02 03:40:54;;;;;;;24.65;14.45;;;13.70;99.90;;;;;;5036167;28;20041;-70
2021/07/02 03:43:19;;;;;;;25.92;15.82;;;13.70;99.90;;;;;;5036379;28;20013;-70
2021/07/02 03:45:45;;;;;;;27.98;17.05;;;13.60;99.90;;;;;;5034613;28;20030;-71
2021/07/02 03:48:11;;;;;;;24.20;15.40;;;13.60;99.90;;;;;;5034644;28;20096;-70
2021/07/02 03:50:37;;;;;;;25.17;16.13;;;13.50;99.90;;;;;;5036771;28;20108;-70
2021/07/02 03:53:03;;;;;;;24.08;16.63;;;13.50;99.90;;;;;;5036402;28;20037;-71
2021/07/02 03:55:28;;;;;;;22.40;16.35;;;13.50;99.90;;;;;;5037483;28;20022;-70
2021/07/02 03:57:54;;;;;;;22.33;15.68;;;13.40;99.90;;;;;;5035471;28;20029;-70
2021/07/02 04:00:19;;;;;;;27.25;17.33;;;13.50;99.90;;;;;;5034896;28;20025;-71
2021/07/02 04:02:45;;;;;;;23.50;15.75;;;13.40;99.90;;;;;;5034164;28;20473;-70
2021/07/02 04:05:11;;;;;;;24.52;15.45;;;13.50;99.90;;;;;;5035686;28;20100;-71
2021/07/02 04:07:36;;;;;;;21.85;14.68;;;13.50;99.90;;;;;;5035280;28;20032;-71
2021/07/02 04:10:03;;;;;;;22.70;14.52;;;13.60;99.90;;;;;;5034594;28;20021;-71
2021/07/02 04:12:29;;;;;;;24.45;15.98;;;13.60;99.90;;;;;;5034802;28;20029;-71
2021/07/02 04:14:54;;;;;;;23.40;15.55;;;13.70;99.90;;;;;;5033687;28;20075;-71
2021/07/02 04:17:20;;;;;;;18.50;12.63;;;13.70;99.90;;;;;;5038346;28;20056;-71
2021/07/02 04:19:45;;;;;;;26.95;14.52;;;13.70;99.90;;;;;;5037789;28;20378;-70
2021/07/02 04:22:11;;;;;;;20.80;14.05;;;13.80;99.90;;;;;;5035195;28;20045;-70
2021/07/02 04:24:36;;;;;;;22.60;14.35;;;13.80;99.90;;;;;;5036157;28;20025;-71
2021/07/02 04:27:02;;;;;;;23.30;13.38;;;13.90;99.90;;;;;;5034309;28;20068;-71
2021/07/02 04:29:28;;;;;;;22.02;13.73;;;13.90;99.90;;;;;;5033307;28;20362;-71
2021/07/02 04:31:53;;;;;;;21.13;13.40;;;13.90;99.90;;;;;;5033385;28;20064;-71
2021/07/02 04:34:19;;;;;;;15.00;10.90;;;14.00;99.90;;;;;;5035852;28;20052;-71
2021/07/02 04:36:45;;;;;;;19.58;12.10;;;14.00;99.90;;;;;;5037502;28;20036;-71
2021/07/02 04:39:11;;;;;;;22.00;13.95;;;14.10;99.90;;;;;;5035199;28;20067;-71
2021/07/02 04:41:37;;;;;;;19.65;13.70;;;14.10;99.90;;;;;;5035861;28;20024;-70
2021/07/02 04:44:04;;;;;;;17.23;11.65;;;14.10;99.90;;;;;;5034047;28;20013;-71
2021/07/02 04:46:29;;;;;;;17.88;11.15;;;14.20;99.90;;;;;;5034024;28;20108;-71
2021/07/02 04:48:55;;;;;;;19.10;11.65;;;14.20;99.90;;;;;;5033318;28;20112;-71
2021/07/02 04:51:20;;;;;;;19.92;11.77;;;14.20;99.90;;;;;;5035780;28;20088;-71
2021/07/02 04:53:46;;;;;;;17.30;11.85;;;14.30;99.90;;;;;;5037376;28;20026;-70
2021/07/02 04:56:12;;;;;;;14.85;10.07;;;14.30;99.90;;;;;;5034476;28;20030;-71
2021/07/02 04:58:43;;;;;;;18.90;12.27;;;14.40;99.90;;;;;;5035654;28;20017;-71
2021/07/02 05:01:12;;;;;;;17.73;11.85;;;14.40;99.90;;;;;;5033746;28;20370;-70
2021/07/02 05:03:37;;;;;;;18.63;10.52;;;14.40;99.90;;;;;;5033688;28;20040;-71
2021/07/02 05:06:03;;;;;;;15.20;9.93;;;14.50;99.90;;;;;;5035589;28;20108;-71
2021/07/02 05:08:29;;;;;;;15.93;10.45;;;14.50;99.90;;;;;;5033276;28;20076;-71
2021/07/02 05:10:55;;;;;;;14.52;10.18;;;14.50;99.90;;;;;;5033428;28;20021;-72
2021/07/02 05:13:20;;;;;;;11.35;8.30;;;14.50;99.90;;;;;;5031766;28;20136;-71
2021/07/02 05:15:47;;;;;;;14.30;9.57;;;14.50;99.90;;;;;;5032710;28;20397;-71
2021/07/02 05:18:13;;;;;;;11.10;8.85;;;14.50;99.90;;;;;;5047664;28;20013;-71
2021/07/02 05:20:43;;;;;;;13.10;9.13;;;14.60;99.90;;;;;;5052539;28;20032;-70
2021/07/02 05:23:09;;;;;;;12.00;9.15;;;14.60;99.90;;;;;;5051335;28;20029;-71
2021/07/02 05:25:34;;;;;;;16.70;9.98;;;14.70;99.90;;;;;;5052549;28;20043;-71
2021/07/02 05:28:00;;;;;;;15.27;9.90;;;14.80;99.90;;;;;;5053116;28;20155;-71
2021/07/02 05:30:27;;;;;;;16.45;10.40;;;14.90;99.90;;;;;;5052946;28;20033;-71
2021/07/02 05:32:52;;;;;;;17.27;11.25;;;15.00;99.90;;;;;;5052216;28;20025;-71
2021/07/02 05:35:18;;;;;;;15.30;9.52;;;15.10;99.90;;;;;;5052909;28;20033;-71
2021/07/02 05:37:45;;;;;;;12.05;9.32;;;15.10;99.90;;;;;;5052800;28;20473;-71
2021/07/02 05:40:16;;;;;;;14.68;9.52;;;15.10;99.90;;;;;;5053463;28;20096;-71
2021/07/02 05:42:42;;;;;;;16.85;11.20;;;15.10;99.90;;;;;;5052670;28;20013;-70
2021/07/02 05:45:09;;;;;;;20.02;11.55;;;15.10;99.90;;;;;;5052651;28;20031;-70
2021/07/02 05:47:47;;;;;;;14.80;9.80;;;15.10;99.90;;;;;;5051462;28;20404;-70
2021/07/02 05:50:13;;;;;;;17.92;12.10;;;15.10;99.90;;;;;;5052903;28;20489;-70
2021/07/02 05:52:39;;;;;;;14.82;9.98;;;15.10;99.90;;;;;;5052826;28;20025;-70
2021/07/02 05:55:05;;;;;;;16.02;11.05;;;15.10;99.90;;;;;;5062691;28;20431;-70
2021/07/02 05:57:30;;;;;;;17.08;10.85;;;15.10;99.90;;;;;;5072361;28;20048;-70
2021/07/02 05:59:56;;;;;;;16.90;11.98;;;15.20;99.80;;;;;;5073011;28;20053;-70
2021/07/02 06:02:21;;;;;;;16.48;11.35;;;15.20;99.80;;;;;;5072905;28;20381;-70
2021/07/02 06:04:47;;;;;;;16.80;12.02;;;15.30;99.70;;;;;;5072475;28;20025;-70
2021/07/02 06:07:12;;;;;;;16.75;11.75;;;15.30;99.60;;;;;;5064740;28;20024;-70
2021/07/02 06:09:38;;;;;;;15.52;10.70;;;15.40;99.40;;;;;;5062562;28;20033;-71
2021/07/02 06:12:04;;;;;;;15.45;10.50;;;15.40;99.20;;;;;;5060862;28;20377;-70
2021/07/02 06:14:31;;;;;;;16.33;11.50;;;15.50;99.10;;;;;;5058085;28;20033;-71
2021/07/02 06:16:57;;;;;;;16.08;11.18;;;15.50;98.90;;;;;;5052368;28;20477;-70
2021/07/02 06:19:22;;;;;;;14.82;10.35;;;15.60;98.90;;;;;;5052558;28;20146;-70
2021/07/02 06:21:48;;;;;;;15.82;10.18;;;15.70;98.80;;;;;;5052340;28;20055;-70
2021/07/02 06:24:14;;;;;;;16.48;9.73;;;15.70;98.70;;;;;;5052531;28;20057;-70
2021/07/02 06:26:39;;;;;;;15.82;10.10;;;15.70;98.50;;;;;;5052176;28;20029;-70
2021/07/02 06:29:05;;;;;;;18.65;11.77;;;15.80;98.40;;;;;;5052259;28;20044;-70
2021/07/02 06:31:32;;;;;;;16.27;11.23;;;15.80;98.20;;;;;;5052255;28;20051;-70
2021/07/02 06:33:57;;;;;;;17.17;11.15;;;15.80;98.20;;;;;;5052041;28;20397;-70
2021/07/02 06:36:23;;;;;;;13.77;9.30;;;15.90;98.20;;;;;;5051496;28;20029;-70
2021/07/02 06:38:48;;;;;;;14.68;10.93;;;16.00;98.20;;;;;;5050709;28;20021;-70
2021/07/02 06:41:14;;;;;;;12.52;9.00;;;16.00;98.00;;;;;;5052291;28;20083;-70
2021/07/02 06:43:39;;;;;;;20.20;11.73;;;16.10;97.90;;;;;;5058622;28;20017;-70
2021/07/02 06:46:05;;;;;;;16.95;12.30;;;16.10;97.80;;;;;;5055347;28;20088;-70
2021/07/02 06:48:30;;;;;;;20.42;12.82;;;16.10;97.60;;;;;;5053705;28;20021;-70
2021/07/02 06:50:56;;;;;;;18.20;12.93;;;16.10;97.50;;;;;;5055830;28;20029;-70
2021/07/02 06:53:23;;;;;;;16.00;11.30;;;16.20;97.60;;;;;;5053608;28;20025;-71
2021/07/02 06:55:48;;;;;;;17.10;11.25;;;16.20;97.50;;;;;;5054427;28;20036;-70
2021/07/02 06:58:14;;;;;;;18.77;12.48;;;16.30;97.50;;;;;;5054744;28;20095;-69
2021/07/02 07:00:39;;;;;;;15.82;10.82;;;16.50;97.30;;;;;;5051870;28;20102;-71
2021/07/02 07:03:06;;;;;;;11.63;7.97;;;16.70;97.30;;;;;;5055696;28;20025;-71
2021/07/02 07:05:33;;;;;;;14.32;10.52;;;16.80;97.20;;;;;;5055641;28;20036;-71
2021/07/02 07:07:59;;;;;;;14.13;9.85;;;16.90;97.20;;;;;;5055442;28;20029;-72
2021/07/02 07:10:24;;;;;;;18.33;10.63;;;17.00;97.00;;;;;;5055057;28;20043;-71
2021/07/02 07:12:50;;;;;;;14.75;10.48;;;17.00;97.00;;;;;;5028766;28;20453;-69
2021/07/02 07:15:15;;;;;;;16.92;10.63;;;17.00;96.60;;;;;;5028902;28;20033;-70
2021/07/02 07:17:42;;;;;;;13.48;9.63;;;17.10;96.60;;;;;;5046227;28;20025;-71
2021/07/02 07:20:08;;;;;;;15.70;11.40;;;17.10;96.50;;;;;;5054825;28;20025;-71
2021/07/02 07:22:33;;;;;;;15.70;10.40;;;17.10;96.40;;;;;;5053469;28;20048;-71
2021/07/02 07:24:59;;;;;;;13.18;10.30;;;17.20;96.40;;;;;;5055069;28;20416;-71
2021/07/02 07:27:24;;;;;;;14.40;9.45;;;17.30;96.50;;;;;;5055202;28;20037;-71
2021/07/02 07:29:50;;;;;;;14.98;10.63;;;17.30;96.40;;;;;;5054857;28;20082;-71
2021/07/02 07:32:16;;;;;;;15.63;11.18;;;17.40;96.30;;;;;;5053945;28;20037;-71
2021/07/02 07:34:48;;;;;;;17.35;10.95;;;17.40;96.20;;;;;;5054980;28;20028;-71
2021/07/02 07:37:17;;;;;;;14.07;9.63;;;17.50;96.10;;;;;;5054982;28;20036;-71
2021/07/02 07:39:43;;;;;;;16.17;10.55;;;17.50;96.00;;;;;;5053129;28;20021;-71
2021/07/02 07:42:08;;;;;;;14.63;10.20;;;17.60;95.90;;;;;;5054671;28;20083;-71
2021/07/02 07:44:34;;;;;;;13.10;9.30;;;17.60;95.80;;;;;;5054711;28;20021;-71
2021/07/02 07:46:59;;;;;;;16.95;11.75;;;17.60;95.90;;;;;;5054820;28;20032;-71
2021/07/02 07:49:25;;;;;;;14.95;11.70;;;17.50;95.80;;;;;;5054400;28;20242;-71
2021/07/02 07:54:20;;;;;;;19.17;12.45;;;17.50;95.90;;;;;;5054467;28;20477;-71
2021/07/02 07:56:51;;;;;;;16.20;11.48;;;17.50;95.80;;;;;;5054066;28;20021;-71
2021/07/02 07:59:21;;;;;;;18.92;12.43;;;17.60;95.90;;;;;;5053943;28;20029;-71
2021/07/02 08:01:47;;;;;;;18.52;12.30;;;17.70;95.80;;;;;;5054071;28;20401;-71
2021/07/02 08:04:14;;;;;;;16.67;12.75;;;17.70;95.80;;;;;;5054073;28;20024;-71
2021/07/02 08:06:44;;;;;;;19.05;14.07;;;17.70;95.70;;;;;;5053843;28;20147;-71
2021/07/02 08:09:11;;;;;;;19.65;13.63;;;17.70;95.70;;;;;;5054176;28;20039;-71
2021/07/02 08:11:37;;;;;;;22.27;14.50;;;17.60;95.60;;;;;;5050327;28;20396;-71
2021/07/02 08:14:04;;;;;;;19.80;13.90;;;17.70;95.70;;;;;;5053901;28;20032;-71
2021/07/02 08:16:29;;;;;;;19.42;12.73;;;17.60;95.70;;;;;;5053500;28;20103;-71
2021/07/02 08:18:55;;;;;;;17.95;12.30;;;17.70;95.70;;;;;;5053759;28;20097;-71
2021/07/02 08:21:20;;;;;;;32.70;20.40;;;17.80;95.60;;;;;;5053369;28;20045;-71
2021/07/02 08:23:46;;;;;;;25.70;17.92;;;17.90;95.50;;;;;;5052009;28;20083;-71
2021/07/02 08:26:12;;;;;;;26.55;18.00;;;17.80;95.00;;;;;;5054133;28;20028;-71
2021/07/02 08:31:22;;;;;;;19.55;12.90;;;17.80;94.90;;;;;;5054158;28;20059;-71
2021/07/02 08:33:48;;;;;;;17.27;12.65;;;17.90;94.80;;;;;;5053717;28;20029;-71
2021/07/02 08:36:13;;;;;;;20.90;13.80;;;17.90;94.80;;;;;;5052104;28;20060;-71
2021/07/02 08:38:39;;;;;;;20.95;14.07;;;18.00;94.70;;;;;;5053871;28;20021;-71
2021/07/02 08:41:07;;;;;;;18.20;12.45;;;18.00;94.60;;;;;;5050293;28;20021;-72
2021/07/02 08:43:32;;;;;;;19.10;13.88;;;18.00;94.60;;;;;;5053856;28;20045;-72
2021/07/02 08:45:58;;;;;;;18.60;12.85;;;18.00;94.50;;;;;;5053407;28;20055;-72
2021/07/02 08:48:25;;;;;;;16.90;11.57;;;18.00;94.60;;;;;;5053061;28;20104;-72
2021/07/02 08:50:55;;;;;;;19.83;13.35;;;18.00;94.60;;;;;;5053318;28;20103;-72
2021/07/02 08:53:21;;;;;;;13.70;10.07;;;18.00;94.50;;;;;;5051719;28;20104;-72
2021/07/02 08:55:47;;;;;;;17.38;10.30;;;18.10;94.60;;;;;;5053283;28;20036;-72
2021/07/02 08:58:15;;;;;;;14.05;10.35;;;18.20;94.50;;;;;;5053501;28;20075;-72
2021/07/02 09:00:44;;;;;;;15.25;9.98;;;18.30;94.40;;;;;;5053170;28;20491;-72
2021/07/02 09:03:32;;;;;;;14.68;10.02;;;18.40;94.30;;;;;;5053521;28;20104;-73
2021/07/02 09:06:18;;;;;;;16.00;10.48;;;18.50;94.10;;;;;;5051974;28;20079;-72
2021/07/02 09:09:06;;;;;;;20.77;14.70;;;18.50;94.10;;;;;;5053603;28;20029;-73
2021/07/02 09:11:34;;;;;;;17.33;11.10;;;18.60;93.90;;;;;;5052002;28;20036;-72
2021/07/02 09:14:01;;;;;;;17.40;11.05;;;18.60;94.00;;;;;;5053185;28;20262;-72
2021/07/02 09:16:28;;;;;;;16.50;10.77;;;18.70;93.90;;;;;;5053031;28;20025;-72
2021/07/02 09:18:54;;;;;;;15.23;11.20;;;18.80;93.80;;;;;;5051872;28;20021;-72
2021/07/02 09:21:38;;;;;;;13.80;9.77;;;18.90;93.70;;;;;;5052890;28;20102;-72
2021/07/02 09:24:03;;;;;;;14.13;10.57;;;19.10;93.60;;;;;;5051888;28;20029;-73
2021/07/02 09:26:39;;;;;;;16.00;11.60;;;19.10;93.60;;;;;;5052981;28;20025;-72
2021/07/02 09:29:31;;;;;;;15.27;11.35;;;19.20;93.50;;;;;;5053014;28;20392;-72
2021/07/02 09:31:58;;;;;;;13.27;10.30;;;19.30;93.30;;;;;;5047604;28;20071;-73
2021/07/02 09:34:50;;;;;;;14.10;9.80;;;19.20;93.40;;;;;;5052725;28;20025;-73
2021/07/02 09:37:29;;;;;;;15.43;10.38;;;19.40;93.30;;;;;;5052883;28;20055;-72
2021/07/02 09:39:55;;;;;;;18.17;12.50;;;19.50;93.20;;;;;;5052796;28;20389;-73
2021/07/02 09:42:28;;;;;;;14.45;10.88;;;19.30;93.00;;;;;;5052242;28;20027;-72
2021/07/02 09:45:04;;;;;;;19.55;12.65;;;19.40;93.00;;;;;;5052742;28;20083;-72
2021/07/02 09:47:30;;;;;;;17.27;13.00;;;19.50;92.80;;;;;;5052615;28;20436;-72
2021/07/02 09:50:15;;;;;;;19.42;13.65;;;19.50;92.70;;;;;;5052678;28;20032;-72
2021/07/02 09:53:03;;;;;;;15.93;12.40;;;19.50;92.60;;;;;;5052622;28;20025;-72
2021/07/02 09:55:31;;;;;;;17.38;13.43;;;19.50;92.70;;;;;;5052581;28;20429;-71
2021/07/02 09:58:04;;;;;;;16.45;11.80;;;19.40;92.90;;;;;;5052607;28;20121;-71
2021/07/02 10:00:31;;;;;;;18.27;12.90;;;19.40;92.90;;;;;;5052846;28;20025;-71
2021/07/02 10:02:58;;;;;;;20.90;13.05;;;19.30;93.00;;;;;;5053534;28;20388;-71
2021/07/02 10:05:27;;;;;;;17.63;12.30;;;19.30;93.00;;;;;;5062469;28;20027;-72
2021/07/02 10:07:56;;;;;;;19.67;13.48;;;19.30;93.10;;;;;;5072544;28;20465;-72
2021/07/02 10:10:25;;;;;;;16.75;12.40;;;19.20;93.20;;;;;;5072729;28;20032;-72
2021/07/02 10:12:53;;;;;;;17.63;11.55;;;19.30;93.30;;;;;;5072552;28;20531;-73
2021/07/02 10:15:20;;;;;;;14.52;11.45;;;19.30;93.30;;;;;;5072533;28;20039;-73
2021/07/02 10:17:46;;;;;;;16.60;11.00;;;19.30;93.30;;;;;;5058461;28;20355;-73
2021/07/02 10:20:14;;;;;;;15.95;12.25;;;19.40;93.30;;;;;;5053850;28;20220;-72
2021/07/02 10:22:41;;;;;;;18.10;12.85;;;19.50;93.20;;;;;;5051720;28;20037;-73
2021/07/02 10:25:10;;;;;;;16.35;11.48;;;19.50;93.10;;;;;;5055992;28;20048;-73
2021/07/02 10:27:38;;;;;;;16.50;10.80;;;19.60;93.10;;;;;;5052270;28;20025;-72
2021/07/02 10:30:04;;;;;;;14.75;10.82;;;19.70;93.10;;;;;;5055805;28;20375;-73
2021/07/02 10:32:31;;;;;;;17.58;12.30;;;19.60;93.10;;;;;;5055383;28;20030;-72
2021/07/02 10:34:57;;;;;;;14.52;11.18;;;19.60;93.10;;;;;;5054167;28;20405;-72
2021/07/02 10:37:24;;;;;;;19.85;13.07;;;19.50;93.30;;;;;;5047378;28;20025;-73
2021/07/02 10:39:50;;;;;;;18.02;12.25;;;19.50;93.40;;;;;;5052432;28;20017;-73
2021/07/02 10:42:15;;;;;;;15.20;11.40;;;19.40;93.50;;;;;;5047189;28;20374;-73
2021/07/02 10:44:53;;;;;;;17.17;13.00;;;19.40;93.50;;;;;;5048903;28;20074;-72
2021/07/02 10:47:20;;;;;;;17.20;12.13;;;19.30;93.70;;;;;;5055468;28;20018;-72
2021/07/02 10:49:45;;;;;;;14.95;11.25;;;19.30;94.10;;;;;;5055548;28;20036;-73
2021/07/02 10:52:28;;;;;;;17.13;11.98;;;19.20;94.20;;;;;;5055888;28;20025;-72
2021/07/02 10:54:55;;;;;;;20.48;13.27;;;19.30;94.20;;;;;;5055483;28;20017;-72
2021/07/02 10:57:22;;;;;;;18.50;12.80;;;19.30;94.60;;;;;;5055523;28;20036;-72
2021/07/02 10:59:52;;;;;;;16.08;11.60;;;19.40;94.40;;;;;;5058157;28;20486;-73
2021/07/02 11:02:18;;;;;;;16.50;12.18;;;19.50;94.30;;;;;;5058610;28;20116;-72
2021/07/02 11:04:52;;;;;;;16.85;11.55;;;19.60;94.30;;;;;;5056887;28;20032;-73
2021/07/02 11:07:25;;;;;;;15.75;11.98;;;19.60;94.20;;;;;;5053209;28;20518;-72
2021/07/02 11:09:57;;;;;;;15.85;11.52;;;19.60;94.30;;;;;;5052273;28;20538;-73
2021/07/02 11:12:44;;;;;;;17.75;11.80;;;19.60;94.30;;;;;;5051396;28;20029;-72
2021/07/02 11:15:15;;;;;;;15.00;10.95;;;19.60;94.30;;;;;;5054007;28;20469;-73
2021/07/02 11:17:43;;;;;;;15.55;11.43;;;19.60;94.30;;;;;;5054695;28;20033;-73
2021/07/02 11:20:17;;;;;;;16.75;11.88;;;19.60;94.30;;;;;;5051752;28;20049;-73
2021/07/02 11:22:43;;;;;;;17.75;12.35;;;19.60;94.20;;;;;;5049310;28;20107;-73
2021/07/02 11:25:30;;;;;;;19.55;13.13;;;19.50;94.30;;;;;;5055300;28;20028;-73
2021/07/02 11:28:33;;;;;;;19.20;12.95;;;19.50;94.40;;;;;;5055519;28;20112;-72
2021/07/02 11:31:00;;;;;;;17.48;10.25;;;19.50;94.40;;;;;;5050588;28;20052;-73
2021/07/02 11:33:26;;;;;;;17.02;11.40;;;19.50;94.40;;;;;;5055105;28;20025;-73
2021/07/02 11:35:54;;;;;;;17.45;12.20;;;19.50;94.30;;;;;;5054901;28;20028;-73
2021/07/02 11:38:21;;;;;;;15.23;10.38;;;19.50;94.30;;;;;;5055111;28;20022;-69
2021/07/02 11:40:58;;;;;;;17.17;10.25;;;19.50;94.30;;;;;;5054924;28;20028;-73
2021/07/02 11:43:31;;;;;;;15.10;10.77;;;19.50;94.30;;;;;;5054922;28;20100;-73
2021/07/02 11:46:02;;;;;;;14.82;10.43;;;19.60;94.50;;;;;;5054757;28;20037;-73
2021/07/02 11:48:33;;;;;;;16.75;10.85;;;19.60;94.40;;;;;;5055002;28;20435;-73
2021/07/02 11:51:01;;;;;;;15.50;11.20;;;19.70;94.40;;;;;;5054621;28;20017;-73
2021/07/02 11:53:45;;;;;;;15.13;10.80;;;19.80;94.30;;;;;;5054789;28;20047;-72
2021/07/02 11:56:17;;;;;;;16.00;11.60;;;19.80;94.20;;;;;;5054833;28;20052;-73
2021/07/02 11:58:50;;;;;;;17.70;10.82;;;19.90;94.30;;;;;;5054976;28;20423;-73
2021/07/02 12:01:21;;;;;;;17.85;11.80;;;19.90;94.20;;;;;;5054586;28;20547;-73
2021/07/02 12:03:52;;;;;;;16.88;10.70;;;19.90;94.10;;;;;;5054859;28;20025;-72
2021/07/02 12:06:26;;;;;;;16.92;12.00;;;19.90;94.10;;;;;;5054230;28;20021;-73
2021/07/02 12:09:08;;;;;;;17.35;11.50;;;19.90;94.20;;;;;;5054526;28;20037;-73
2021/07/02 12:12:01;;;;;;;15.38;11.32;;;20.00;94.00;;;;;;5054413;28;20049;-73
2021/07/02 12:14:31;;;;;;;17.48;12.95;;;20.10;94.10;;;;;;5053696;28;20046;-73
2021/07/02 12:16:58;;;;;;;18.02;12.50;;;20.10;94.10;;;;;;5054185;28;20055;-73
2021/07/02 12:19:26;;;;;;;14.55;10.50;;;20.20;94.10;;;;;;5054312;28;20025;-73
2021/07/02 12:22:06;;;;;;;16.30;11.32;;;20.30;94.00;;;;;;5053855;28;20084;-73
2021/07/02 12:24:34;;;;;;;14.82;10.23;;;20.40;93.70;;;;;;5054226;28;20021;-73
2021/07/02 12:27:02;;;;;;;14.13;10.50;;;20.50;93.80;;;;;;5053903;28;20025;-73
2021/07/02 12:29:29;;;;;;;12.20;9.07;;;20.60;93.70;;;;;;5054024;28;20031;-73
2021/07/02 12:31:59;;;;;;;19.42;13.93;;;20.80;93.50;;;;;;5053846;28;20013;-73
2021/07/02 12:34:26;;;;;;;14.98;11.65;;;20.80;93.20;;;;;;5052496;28;20025;-73
2021/07/02 12:37:01;;;;;;;14.60;11.55;;;20.80;93.10;;;;;;5053502;28;20024;-73
2021/07/02 12:39:39;;;;;;;12.13;9.50;;;21.00;93.00;;;;;;5053268;28;20056;-73